Plaquemine, Louisiana
Current Conditions -  °F | °C
As of 6:53 AM on Sunday 23 Nov 2014 (Local Time) from KBTR Reporting Station
Light Rain Light Rain  
Wind Chill: 65°   Ceiling: 11000
Heat Index: 65°   Visibility: 10mi
Dew Point: 63°   Wind: 13mph
Humidity: 93%   Direction: 120°ESE
Pressure: 29.66"   Gusts: NA
Location:  30.29°N, 91.23°W
Report Text: KBTR 231253Z 12011KT 10SM -RA SCT090 OVC110 18/17 A2966 RMK AO2 PRESFR SLP043 P0021 T01830172 $
Loading
Personal Weather Stations






























Interactive Weather Map New forecast layout! Learn more

10-Day Weather Forecast

Advertisements
Track Severe Weather on mobile